Time;durP1;ratioP1;P1;durP2;ratioP2;P2;SDS_P1;SDS_P2;PMS_P1;PMS_P2;Temp;Humidity;BMP_temperature;BMP_pressure;BME280_temperature;BME280_humidity;BME280_pressure;Samples;Min_cycle;Max_cycle;Signal;HPM_P1;HPM_P2
2022/04/24 00:02:25;;;;;;;8.30;3.80;;;;;;;;;;5084672;28;20028;-57
2022/04/24 00:04:51;;;;;;;7.43;3.38;;;;;;;;;;5082405;28;20396;-57
2022/04/24 00:07:17;;;;;;;5.75;3.67;;;;;;;;;;5071836;28;20036;-57
2022/04/24 00:09:43;;;;;;;7.38;3.40;;;;;;;;;;5091496;28;20111;-58
2022/04/24 00:12:15;;;;;;;8.95;4.18;;;;;;;;;;5094495;28;20103;-58
2022/04/24 00:14:41;;;;;;;5.55;3.40;;;;;;;;;;5089830;28;20047;-58
2022/04/24 00:17:07;;;;;;;5.15;3.50;;;;;;;;;;5094503;28;20028;-57
2022/04/24 00:19:33;;;;;;;6.30;3.88;;;;;;;;;;5067621;28;20043;-58
2022/04/24 00:21:59;;;;;;;5.35;3.65;;;;;;;;;;5090591;28;20828;-57
2022/04/24 00:24:25;;;;;;;7.35;4.10;;;;;;;;;;5080644;28;20028;-58
2022/04/24 00:26:52;;;;;;;5.75;3.28;;;;;;;;;;5085793;28;20411;-57
2022/04/24 00:29:18;;;;;;;7.00;4.07;;;;;;;;;;5076599;28;20025;-58
2022/04/24 00:31:44;;;;;;;6.32;3.45;;;;;;;;;;5073289;28;20107;-57
2022/04/24 00:34:10;;;;;;;5.47;3.45;;;;;;;;;;5067063;28;20037;-58
2022/04/24 00:36:37;;;;;;;6.65;3.63;;;;;;;;;;5078492;28;20507;-58
2022/04/24 00:39:03;;;;;;;6.43;3.67;;;;;;;;;;5083013;28;20024;-57
2022/04/24 00:41:29;;;;;;;7.45;4.20;;;;;;;;;;5080787;28;20030;-57
2022/04/24 00:43:55;;;;;;;6.32;3.50;;;;;;;;;;5094244;28;20392;-57
2022/04/24 00:46:36;;;;;;;7.85;3.70;;;;;;;;;;5079424;28;20150;-57
2022/04/24 00:49:03;;;;;;;19.73;5.68;;;;;;;;;;5076100;28;20035;-57
2022/04/24 00:51:29;;;;;;;7.60;3.53;;;;;;;;;;5066481;28;20051;-57
2022/04/24 00:53:56;;;;;;;4.88;3.45;;;;;;;;;;5068339;28;20050;-56
2022/04/24 00:56:30;;;;;;;5.72;3.60;;;;;;;;;;5067849;28;20031;-57
2022/04/24 00:58:56;;;;;;;6.93;3.97;;;;;;;;;;5066650;28;20031;-56
2022/04/24 01:01:22;;;;;;;8.70;3.70;;;;;;;;;;5074484;28;20797;-57
2022/04/24 01:03:48;;;;;;;10.23;3.33;;;;;;;;;;5072836;28;20154;-60
2022/04/24 01:06:14;;;;;;;5.70;3.42;;;;;;;;;;5079367;28;20032;-59
2022/04/24 01:08:40;;;;;;;9.55;4.30;;;;;;;;;;5074768;28;20039;-59
2022/04/24 01:11:06;;;;;;;6.47;3.20;;;;;;;;;;5077735;28;20028;-59
2022/04/24 01:13:32;;;;;;;8.88;3.78;;;;;;;;;;5065079;28;20021;-60
2022/04/24 01:15:58;;;;;;;10.88;3.95;;;;;;;;;;5065634;28;20028;-60
2022/04/24 01:18:26;;;;;;;7.15;3.80;;;;;;;;;;5075639;28;20400;-59
2022/04/24 01:20:52;;;;;;;9.20;4.10;;;;;;;;;;5090491;28;20024;-59
2022/04/24 01:23:18;;;;;;;5.82;3.72;;;;;;;;;;5072398;28;20034;-59
2022/04/24 01:25:44;;;;;;;8.65;3.70;;;;;;;;;;5083925;28;20036;-59
2022/04/24 01:28:10;;;;;;;7.57;3.80;;;;;;;;;;5061575;28;20029;-59
2022/04/24 01:30:36;;;;;;;7.00;3.50;;;;;;;;;;5067706;28;20199;-60
2022/04/24 01:33:03;;;;;;;6.05;3.58;;;;;;;;;;5076324;28;20025;-59
2022/04/24 01:35:29;;;;;;;7.20;4.07;;;;;;;;;;5068516;28;20044;-59
2022/04/24 01:37:58;;;;;;;9.75;5.05;;;;;;;;;;5068489;28;20583;-60
2022/04/24 01:40:24;;;;;;;8.40;4.20;;;;;;;;;;5071306;28;20033;-60
2022/04/24 01:42:50;;;;;;;7.10;4.13;;;;;;;;;;5078108;28;20104;-60
2022/04/24 01:45:16;;;;;;;6.38;3.88;;;;;;;;;;5092859;28;20524;-60
2022/04/24 01:47:42;;;;;;;8.05;4.15;;;;;;;;;;5079368;28;20028;-59
2022/04/24 01:50:08;;;;;;;6.68;3.85;;;;;;;;;;5069811;28;20031;-55
2022/04/24 01:52:34;;;;;;;9.85;4.57;;;;;;;;;;5083181;28;20028;-59
2022/04/24 01:55:00;;;;;;;7.22;4.03;;;;;;;;;;5073974;28;20028;-59
2022/04/24 01:57:26;;;;;;;7.93;3.90;;;;;;;;;;5066696;28;20021;-59
2022/04/24 01:59:52;;;;;;;7.65;4.45;;;;;;;;;;5081688;28;20067;-58
2022/04/24 02:02:18;;;;;;;10.35;3.83;;;;;;;;;;5081938;28;20481;-58
2022/04/24 02:04:44;;;;;;;6.85;4.05;;;;;;;;;;5092639;28;20089;-59
2022/04/24 02:07:11;;;;;;;12.82;4.72;;;;;;;;;;5079252;28;20037;-59
2022/04/24 02:09:38;;;;;;;6.45;4.18;;;;;;;;;;5069768;28;20082;-57
2022/04/24 02:12:05;;;;;;;7.80;4.78;;;;;;;;;;5069012;28;20025;-58
2022/04/24 02:14:31;;;;;;;8.63;4.10;;;;;;;;;;5066484;28;20036;-58
2022/04/24 02:16:57;;;;;;;10.38;4.30;;;;;;;;;;5084149;28;20438;-60
2022/04/24 02:19:23;;;;;;;8.50;4.55;;;;;;;;;;5080340;28;20028;-59
2022/04/24 02:21:49;;;;;;;6.38;4.03;;;;;;;;;;5073235;28;20036;-58
2022/04/24 02:24:15;;;;;;;10.38;4.43;;;;;;;;;;5081242;28;20043;-58
2022/04/24 02:26:41;;;;;;;8.75;4.57;;;;;;;;;;5077788;28;20027;-58
2022/04/24 02:29:07;;;;;;;9.38;4.40;;;;;;;;;;5070421;28;20031;-59
2022/04/24 02:31:33;;;;;;;7.10;4.35;;;;;;;;;;5081996;28;20052;-60
2022/04/24 02:33:59;;;;;;;9.38;4.28;;;;;;;;;;5065244;28;20024;-58
2022/04/24 02:36:25;;;;;;;7.03;4.35;;;;;;;;;;5056771;28;20675;-60
2022/04/24 02:38:50;;;;;;;11.50;4.93;;;;;;;;;;5066149;28;20032;-60
2022/04/24 02:41:16;;;;;;;10.55;4.50;;;;;;;;;;5080887;28;20374;-60
2022/04/24 02:43:42;;;;;;;6.53;4.35;;;;;;;;;;5055276;28;20036;-60
2022/04/24 02:46:08;;;;;;;11.07;5.20;;;;;;;;;;5082090;28;20122;-60
2022/04/24 02:48:34;;;;;;;10.32;4.72;;;;;;;;;;5081148;28;20036;-59
2022/04/24 02:51:00;;;;;;;8.10;4.13;;;;;;;;;;5069198;28;20109;-60
2022/04/24 02:53:26;;;;;;;10.00;4.70;;;;;;;;;;5068298;28;20113;-60
2022/04/24 02:55:52;;;;;;;8.85;4.57;;;;;;;;;;5077531;28;20020;-60
2022/04/24 02:58:20;;;;;;;8.50;4.47;;;;;;;;;;5063986;28;20025;-59
2022/04/24 03:00:50;;;;;;;7.38;4.20;;;;;;;;;;5077969;28;20028;-59
2022/04/24 03:03:19;;;;;;;7.75;4.72;;;;;;;;;;5068444;28;20025;-60
2022/04/24 03:05:49;;;;;;;11.32;4.65;;;;;;;;;;5075522;28;20020;-59
2022/04/24 03:08:15;;;;;;;10.23;5.20;;;;;;;;;;5073701;28;20028;-59
2022/04/24 03:10:41;;;;;;;7.55;4.05;;;;;;;;;;5069586;28;20043;-60
2022/04/24 03:13:08;;;;;;;8.65;4.18;;;;;;;;;;5063608;28;20024;-60
2022/04/24 03:15:36;;;;;;;6.60;4.07;;;;;;;;;;5080838;28;20032;-59
2022/04/24 03:18:02;;;;;;;10.98;5.18;;;;;;;;;;5071783;28;20056;-60
2022/04/24 03:20:28;;;;;;;6.55;3.92;;;;;;;;;;5087820;28;20060;-59
2022/04/24 03:22:54;;;;;;;7.35;4.38;;;;;;;;;;5076147;28;20032;-59
2022/04/24 03:25:20;;;;;;;10.82;4.55;;;;;;;;;;5079775;28;20032;-59
2022/04/24 03:27:46;;;;;;;12.90;4.95;;;;;;;;;;5064555;28;20029;-59
2022/04/24 03:30:12;;;;;;;9.95;4.75;;;;;;;;;;5064559;28;20031;-57
2022/04/24 03:32:38;;;;;;;9.25;4.38;;;;;;;;;;5064303;28;20021;-58
2022/04/24 03:35:06;;;;;;;7.75;4.93;;;;;;;;;;5068968;28;20118;-58
2022/04/24 03:37:33;;;;;;;8.93;4.32;;;;;;;;;;5076771;28;20139;-59
2022/04/24 03:39:59;;;;;;;9.82;4.75;;;;;;;;;;5064334;28;20028;-59
2022/04/24 03:42:28;;;;;;;10.68;5.30;;;;;;;;;;5061566;28;21615;-59
2022/04/24 03:44:54;;;;;;;7.72;4.85;;;;;;;;;;5056161;28;20043;-58
2022/04/24 03:47:21;;;;;;;9.98;5.10;;;;;;;;;;5066269;28;20035;-60
2022/04/24 03:49:47;;;;;;;10.70;5.10;;;;;;;;;;5082498;28;20024;-59
2022/04/24 03:52:12;;;;;;;12.52;5.15;;;;;;;;;;5083590;28;20040;-57
2022/04/24 03:54:39;;;;;;;8.55;4.97;;;;;;;;;;5082891;28;20396;-59
2022/04/24 03:57:05;;;;;;;11.93;4.97;;;;;;;;;;5068112;28;20025;-59
2022/04/24 03:59:31;;;;;;;11.52;4.68;;;;;;;;;;5089437;28;20034;-60
2022/04/24 04:01:57;;;;;;;16.55;5.45;;;;;;;;;;5086258;28;20028;-59
2022/04/24 04:04:23;;;;;;;8.18;4.70;;;;;;;;;;5071507;28;20024;-58
2022/04/24 04:06:49;;;;;;;8.98;4.68;;;;;;;;;;5076489;28;20030;-60
2022/04/24 04:09:15;;;;;;;8.50;4.25;;;;;;;;;;5080216;28;20024;-58
2022/04/24 04:11:41;;;;;;;14.75;5.38;;;;;;;;;;5065422;28;20483;-59
2022/04/24 04:14:07;;;;;;;7.97;4.90;;;;;;;;;;5058971;28;20033;-58
2022/04/24 04:16:33;;;;;;;10.18;5.00;;;;;;;;;;5074704;28;20027;-59
2022/04/24 04:18:59;;;;;;;10.63;5.60;;;;;;;;;;5083545;28;20039;-60
2022/04/24 04:21:25;;;;;;;13.13;5.15;;;;;;;;;;5075098;28;20016;-60
2022/04/24 04:23:51;;;;;;;13.77;4.88;;;;;;;;;;5072095;28;20036;-60
2022/04/24 04:26:17;;;;;;;6.10;4.60;;;;;;;;;;5080406;28;20545;-59
2022/04/24 04:28:46;;;;;;;7.20;5.22;;;;;;;;;;5065100;28;20032;-57
2022/04/24 04:31:12;;;;;;;6.97;4.57;;;;;;;;;;5076732;28;20060;-56
2022/04/24 04:33:38;;;;;;;9.32;4.60;;;;;;;;;;5067047;28;20020;-59
2022/04/24 04:36:05;;;;;;;11.32;5.68;;;;;;;;;;5059076;28;20029;-58
2022/04/24 04:38:31;;;;;;;13.15;4.88;;;;;;;;;;5079628;28;20062;-59
2022/04/24 04:40:57;;;;;;;10.27;5.38;;;;;;;;;;5079230;28;20035;-59
2022/04/24 04:43:23;;;;;;;9.75;5.10;;;;;;;;;;5069736;28;20029;-58
2022/04/24 04:45:49;;;;;;;10.82;4.43;;;;;;;;;;5078381;28;20480;-58
2022/04/24 04:48:15;;;;;;;11.00;5.75;;;;;;;;;;5084926;28;20024;-59
2022/04/24 04:50:41;;;;;;;12.80;5.32;;;;;;;;;;5089417;28;20518;-58
2022/04/24 04:53:07;;;;;;;10.23;5.03;;;;;;;;;;5064414;28;20112;-58
2022/04/24 04:55:33;;;;;;;10.90;5.53;;;;;;;;;;5069160;28;20028;-58
2022/04/24 04:57:59;;;;;;;9.93;5.10;;;;;;;;;;5062707;28;20017;-58
2022/04/24 05:00:25;;;;;;;14.88;5.15;;;;;;;;;;5068728;28;20031;-59
2022/04/24 05:02:51;;;;;;;8.40;5.70;;;;;;;;;;5078474;28;20084;-59
2022/04/24 05:05:17;;;;;;;8.88;5.45;;;;;;;;;;5079794;28;20044;-57
2022/04/24 05:07:43;;;;;;;10.90;5.63;;;;;;;;;;5061874;28;20670;-60
2022/04/24 05:10:09;;;;;;;10.75;5.43;;;;;;;;;;5062039;28;20025;-58
2022/04/24 05:12:35;;;;;;;11.23;5.72;;;;;;;;;;5079160;28;20029;-59
2022/04/24 05:15:05;;;;;;;11.70;5.63;;;;;;;;;;5070603;28;20527;-59
2022/04/24 05:17:31;;;;;;;12.05;5.57;;;;;;;;;;5084992;28;20035;-60
2022/04/24 05:19:57;;;;;;;12.85;6.03;;;;;;;;;;5087505;28;20587;-60
2022/04/24 05:22:24;;;;;;;9.65;5.40;;;;;;;;;;5076549;28;20112;-59
2022/04/24 05:24:50;;;;;;;9.70;5.13;;;;;;;;;;5082188;28;20108;-59
2022/04/24 05:27:16;;;;;;;15.70;6.20;;;;;;;;;;5060548;28;20029;-59
2022/04/24 05:29:42;;;;;;;9.48;5.38;;;;;;;;;;5066046;28;20111;-58
2022/04/24 05:32:10;;;;;;;11.50;5.63;;;;;;;;;;5084849;28;20417;-61
2022/04/24 05:34:36;;;;;;;13.63;5.60;;;;;;;;;;5079958;28;20121;-59
2022/04/24 05:37:03;;;;;;;10.40;6.32;;;;;;;;;;5072577;28;20028;-57
2022/04/24 05:39:29;;;;;;;12.63;6.10;;;;;;;;;;5080008;28;20111;-60
2022/04/24 05:41:55;;;;;;;12.20;6.05;;;;;;;;;;5070985;28;20100;-60
2022/04/24 05:44:21;;;;;;;12.27;6.10;;;;;;;;;;5063733;28;20400;-59
2022/04/24 05:46:46;;;;;;;10.10;5.05;;;;;;;;;;5063252;28;20017;-59
2022/04/24 05:49:12;;;;;;;11.48;5.75;;;;;;;;;;5072548;28;20082;-59
2022/04/24 05:51:39;;;;;;;10.98;5.20;;;;;;;;;;5077821;28;20111;-59
2022/04/24 05:54:05;;;;;;;10.55;5.63;;;;;;;;;;5074482;28;20108;-59
2022/04/24 05:56:31;;;;;;;8.35;4.97;;;;;;;;;;5066565;28;20043;-60
2022/04/24 05:58:57;;;;;;;9.05;5.32;;;;;;;;;;5062650;28;20028;-60
2022/04/24 06:01:22;;;;;;;9.70;4.78;;;;;;;;;;5067210;28;20035;-59
2022/04/24 06:03:48;;;;;;;11.20;5.47;;;;;;;;;;5071937;28;20032;-60
2022/04/24 06:06:16;;;;;;;9.68;4.88;;;;;;;;;;5053469;28;20123;-58
2022/04/24 06:08:42;;;;;;;8.38;4.70;;;;;;;;;;5077800;28;20029;-59
2022/04/24 06:11:08;;;;;;;8.55;5.10;;;;;;;;;;5091187;28;20028;-59
2022/04/24 06:13:34;;;;;;;9.27;4.53;;;;;;;;;;5066670;28;20021;-59
2022/04/24 06:16:00;;;;;;;9.70;4.85;;;;;;;;;;5078660;28;20590;-60
2022/04/24 06:18:27;;;;;;;9.93;5.18;;;;;;;;;;5074853;28;20033;-59
2022/04/24 06:20:53;;;;;;;11.90;5.05;;;;;;;;;;5073359;28;20028;-58
2022/04/24 06:23:19;;;;;;;10.10;5.30;;;;;;;;;;5079124;28;20024;-58
2022/04/24 06:25:45;;;;;;;8.52;5.05;;;;;;;;;;5086363;28;20040;-59
2022/04/24 06:28:11;;;;;;;7.00;4.70;;;;;;;;;;5072182;28;20503;-58
2022/04/24 06:30:40;;;;;;;9.30;5.25;;;;;;;;;;5080317;28;20455;-58
2022/04/24 06:33:09;;;;;;;7.65;5.07;;;;;;;;;;5079973;28;20047;-59
2022/04/24 06:35:35;;;;;;;10.20;4.78;;;;;;;;;;5068581;28;20025;-59
2022/04/24 06:38:01;;;;;;;9.60;5.13;;;;;;;;;;5064928;28;20503;-61
2022/04/24 06:40:27;;;;;;;10.18;4.80;;;;;;;;;;5091602;28;20027;-57
2022/04/24 06:42:54;;;;;;;7.32;4.97;;;;;;;;;;5074364;28;20119;-59
2022/04/24 06:45:25;;;;;;;10.45;5.22;;;;;;;;;;5058527;28;20055;-59
2022/04/24 06:47:51;;;;;;;7.57;4.28;;;;;;;;;;5067231;28;20040;-58
2022/04/24 06:50:17;;;;;;;9.07;5.05;;;;;;;;;;5070841;28;20067;-60
2022/04/24 06:52:43;;;;;;;8.98;4.50;;;;;;;;;;5070613;28;20104;-62
2022/04/24 06:55:09;;;;;;;11.70;4.53;;;;;;;;;;5072295;28;20443;-60
2022/04/24 06:57:35;;;;;;;9.23;4.80;;;;;;;;;;5057986;28;20082;-60
2022/04/24 07:00:02;;;;;;;8.05;4.65;;;;;;;;;;5072913;28;20548;-59
2022/04/24 07:02:28;;;;;;;8.98;4.45;;;;;;;;;;5069806;28;20032;-58
2022/04/24 07:04:54;;;;;;;8.23;5.15;;;;;;;;;;5080321;28;20391;-60
2022/04/24 07:07:20;;;;;;;9.07;5.13;;;;;;;;;;5079335;28;20033;-60
2022/04/24 07:09:46;;;;;;;12.80;5.47;;;;;;;;;;5091236;28;20027;-60
2022/04/24 07:12:11;;;;;;;10.75;4.50;;;;;;;;;;5082176;28;20024;-59
2022/04/24 07:14:38;;;;;;;7.68;4.68;;;;;;;;;;5050035;28;20499;-59
2022/04/24 07:17:04;;;;;;;9.23;4.78;;;;;;;;;;5068981;28;20075;-59
2022/04/24 07:19:30;;;;;;;9.38;4.57;;;;;;;;;;5068091;28;20480;-59
2022/04/24 07:21:57;;;;;;;10.82;5.07;;;;;;;;;;5073696;28;20071;-57
2022/04/24 07:24:23;;;;;;;7.97;4.35;;;;;;;;;;5061973;28;20499;-59
2022/04/24 07:26:49;;;;;;;8.38;4.63;;;;;;;;;;5070828;28;20024;-59
2022/04/24 07:29:15;;;;;;;9.38;4.53;;;;;;;;;;5061992;28;20031;-59
2022/04/24 07:31:41;;;;;;;6.82;4.25;;;;;;;;;;5066282;28;20477;-58
2022/04/24 07:34:08;;;;;;;7.00;4.15;;;;;;;;;;5060293;28;20480;-60
2022/04/24 07:36:35;;;;;;;10.02;5.15;;;;;;;;;;5058783;28;20024;-59
2022/04/24 07:39:01;;;;;;;9.20;4.53;;;;;;;;;;5058309;28;20024;-60
2022/04/24 07:41:27;;;;;;;7.18;4.47;;;;;;;;;;5070740;28;20089;-60
2022/04/24 07:43:53;;;;;;;7.68;4.70;;;;;;;;;;5056704;28;20490;-59
2022/04/24 07:46:19;;;;;;;11.02;4.75;;;;;;;;;;5084494;28;20048;-59
2022/04/24 07:48:45;;;;;;;7.63;4.72;;;;;;;;;;5052516;28;20434;-60
2022/04/24 07:51:11;;;;;;;6.63;4.13;;;;;;;;;;5065386;28;20040;-60
2022/04/24 07:53:41;;;;;;;6.63;3.88;;;;;;;;;;5073928;28;21762;-59
2022/04/24 07:56:07;;;;;;;10.05;4.93;;;;;;;;;;5060369;28;20067;-60
2022/04/24 07:58:33;;;;;;;9.23;4.60;;;;;;;;;;5058083;28;20491;-58
2022/04/24 08:00:59;;;;;;;9.70;4.38;;;;;;;;;;5056390;28;20033;-60
2022/04/24 08:03:25;;;;;;;8.52;4.10;;;;;;;;;;5059147;28;20029;-60
2022/04/24 08:05:52;;;;;;;6.65;4.07;;;;;;;;;;5069120;28;20033;-60
2022/04/24 08:08:18;;;;;;;9.48;4.50;;;;;;;;;;5058746;28;20028;-60
2022/04/24 08:10:47;;;;;;;7.55;4.22;;;;;;;;;;5064099;28;20032;-60
2022/04/24 08:13:13;;;;;;;6.72;4.28;;;;;;;;;;5073650;28;20032;-59
2022/04/24 08:15:39;;;;;;;6.88;4.07;;;;;;;;;;5074119;28;20032;-59
2022/04/24 08:18:06;;;;;;;7.72;3.88;;;;;;;;;;5056593;28;20044;-60
2022/04/24 08:20:32;;;;;;;7.93;4.25;;;;;;;;;;5065333;28;20029;-59
2022/04/24 08:23:03;;;;;;;8.63;3.97;;;;;;;;;;5048225;28;20029;-59
2022/04/24 08:25:29;;;;;;;7.03;3.67;;;;;;;;;;5057832;28;20023;-60
2022/04/24 08:27:56;;;;;;;8.18;4.60;;;;;;;;;;5058044;28;20032;-60
2022/04/24 08:30:23;;;;;;;6.47;4.18;;;;;;;;;;5064195;28;20024;-60
2022/04/24 08:32:50;;;;;;;5.85;3.90;;;;;;;;;;5063961;28;20028;-59
2022/04/24 08:35:17;;;;;;;7.22;4.00;;;;;;;;;;5062385;28;20024;-60
2022/04/24 08:37:43;;;;;;;6.68;4.15;;;;;;;;;;5072691;28;20127;-60
2022/04/24 08:40:10;;;;;;;8.13;4.18;;;;;;;;;;5092681;28;20115;-59
2022/04/24 08:42:37;;;;;;;9.55;4.82;;;;;;;;;;5063282;28;20040;-59
2022/04/24 08:45:04;;;;;;;7.20;3.92;;;;;;;;;;5067961;28;20039;-59
2022/04/24 08:47:30;;;;;;;6.85;3.80;;;;;;;;;;5071269;28;20028;-59
2022/04/24 08:49:57;;;;;;;8.02;4.18;;;;;;;;;;5063580;28;20021;-59
2022/04/24 08:52:23;;;;;;;7.40;3.97;;;;;;;;;;5063021;28;20472;-59
2022/04/24 08:54:50;;;;;;;7.25;3.92;;;;;;;;;;5068337;28;20021;-60
2022/04/24 08:57:17;;;;;;;8.65;4.35;;;;;;;;;;5073374;28;20082;-60
2022/04/24 08:59:43;;;;;;;7.68;4.05;;;;;;;;;;5069742;28;20047;-61
2022/04/24 09:02:09;;;;;;;8.48;4.18;;;;;;;;;;5071939;28;20453;-61
2022/04/24 09:04:35;;;;;;;5.75;3.38;;;;;;;;;;5057975;28;20021;-58
2022/04/24 09:07:02;;;;;;;8.80;3.05;;;;;;;;;;5061089;28;20029;-60
2022/04/24 09:09:31;;;;;;;8.52;3.67;;;;;;;;;;5063752;28;20419;-60
2022/04/24 09:12:07;;;;;;;5.10;3.40;;;;;;;;;;5071565;28;20055;-60
2022/04/24 09:14:34;;;;;;;5.95;3.33;;;;;;;;;;5063597;28;20115;-60
2022/04/24 09:17:04;;;;;;;5.95;2.90;;;;;;;;;;5090852;28;20020;-59
2022/04/24 09:19:30;;;;;;;8.70;4.25;;;;;;;;;;5093263;28;20526;-58
2022/04/24 09:22:07;;;;;;;8.20;3.60;;;;;;;;;;5092138;28;20023;-61
2022/04/24 09:24:49;;;;;;;6.75;3.42;;;;;;;;;;5093574;28;20085;-60
2022/04/24 09:27:26;;;;;;;4.90;3.38;;;;;;;;;;5075815;28;20036;-60
2022/04/24 09:29:54;;;;;;;5.72;3.20;;;;;;;;;;5086261;28;20033;-59
2022/04/24 09:32:20;;;;;;;5.03;2.72;;;;;;;;;;5062148;28;20020;-60
2022/04/24 09:34:46;;;;;;;5.20;2.83;;;;;;;;;;5088816;28;20048;-60
2022/04/24 09:37:12;;;;;;;4.65;3.00;;;;;;;;;;5092680;28;20494;-60
2022/04/24 09:39:38;;;;;;;5.15;2.72;;;;;;;;;;5091938;28;20024;-58
2022/04/24 09:42:08;;;;;;;4.25;2.60;;;;;;;;;;5090158;28;20430;-60
2022/04/24 09:44:48;;;;;;;4.43;3.10;;;;;;;;;;5064634;28;20535;-61
2022/04/24 09:47:16;;;;;;;4.93;3.10;;;;;;;;;;5078857;28;20021;-61
2022/04/24 09:49:46;;;;;;;5.70;3.22;;;;;;;;;;5092929;28;20107;-61
2022/04/24 09:52:13;;;;;;;4.80;2.95;;;;;;;;;;5092920;28;20044;-61
2022/04/24 09:54:40;;;;;;;5.82;2.75;;;;;;;;;;5091286;28;20467;-61
2022/04/24 09:57:07;;;;;;;6.10;2.50;;;;;;;;;;5086124;28;20028;-60
2022/04/24 09:59:33;;;;;;;4.93;2.72;;;;;;;;;;5074893;28;20029;-61
2022/04/24 10:01:59;;;;;;;4.85;2.45;;;;;;;;;;5081763;28;20024;-58
2022/04/24 10:04:26;;;;;;;7.95;2.83;;;;;;;;;;5072517;28;20051;-59
2022/04/24 10:06:52;;;;;;;4.10;2.20;;;;;;;;;;5085249;28;20035;-60
2022/04/24 10:09:19;;;;;;;7.38;3.30;;;;;;;;;;5092265;28;20121;-61
2022/04/24 10:11:45;;;;;;;5.20;2.90;;;;;;;;;;5092187;28;20024;-60
2022/04/24 10:14:12;;;;;;;3.75;3.00;;;;;;;;;;5067441;28;20066;-60
2022/04/24 10:16:57;;;;;;;6.85;3.22;;;;;;;;;;5085328;28;20021;-60
2022/04/24 10:19:23;;;;;;;6.28;2.97;;;;;;;;;;5065232;28;20028;-60
2022/04/24 10:21:52;;;;;;;3.65;2.45;;;;;;;;;;5087247;28;20498;-60
2022/04/24 10:24:19;;;;;;;4.10;2.80;;;;;;;;;;5092603;28;20024;-61
2022/04/24 10:26:52;;;;;;;5.43;2.47;;;;;;;;;;5091978;28;20028;-61
2022/04/24 10:29:18;;;;;;;3.97;2.15;;;;;;;;;;5081873;28;20032;-59
2022/04/24 10:31:46;;;;;;;4.68;2.63;;;;;;;;;;5091400;28;20051;-60
2022/04/24 10:34:13;;;;;;;4.47;2.90;;;;;;;;;;5085413;28;20020;-60
2022/04/24 10:36:52;;;;;;;4.93;2.78;;;;;;;;;;5063781;28;20082;-61
2022/04/24 10:39:19;;;;;;;4.43;2.50;;;;;;;;;;5092334;28;20031;-60
2022/04/24 10:41:59;;;;;;;4.40;2.78;;;;;;;;;;5086584;28;20036;-60
2022/04/24 10:44:25;;;;;;;7.22;3.40;;;;;;;;;;5082140;28;20043;-60
2022/04/24 10:46:53;;;;;;;5.20;3.42;;;;;;;;;;5077772;28;20578;-60
2022/04/24 10:49:19;;;;;;;6.07;2.58;;;;;;;;;;5066790;28;20040;-60
2022/04/24 10:51:57;;;;;;;3.63;2.50;;;;;;;;;;5079878;28;20032;-59
2022/04/24 10:54:30;;;;;;;5.50;2.70;;;;;;;;;;5075805;28;20031;-60
2022/04/24 10:56:57;;;;;;;5.53;2.45;;;;;;;;;;5066896;28;20409;-60
2022/04/24 10:59:24;;;;;;;5.15;2.75;;;;;;;;;;5081902;28;20028;-60
2022/04/24 11:01:50;;;;;;;5.72;2.53;;;;;;;;;;5082300;28;20108;-60
2022/04/24 11:04:17;;;;;;;5.10;2.33;;;;;;;;;;5078955;28;20074;-60
2022/04/24 11:06:56;;;;;;;4.80;2.05;;;;;;;;;;5066676;28;20112;-59
2022/04/24 11:09:22;;;;;;;3.10;2.28;;;;;;;;;;5077348;28;20072;-59
2022/04/24 11:11:53;;;;;;;3.25;2.05;;;;;;;;;;5068468;28;20116;-59
2022/04/24 11:14:20;;;;;;;3.70;2.30;;;;;;;;;;5062394;28;20042;-59
2022/04/24 11:16:50;;;;;;;5.82;2.63;;;;;;;;;;5072446;28;20103;-59
2022/04/24 11:19:28;;;;;;;2.97;2.25;;;;;;;;;;5080514;28;20036;-60
2022/04/24 11:21:56;;;;;;;4.93;2.60;;;;;;;;;;5078114;28;20028;-58
2022/04/24 11:24:22;;;;;;;4.88;3.08;;;;;;;;;;5053086;28;20032;-62
2022/04/24 11:26:48;;;;;;;4.97;2.50;;;;;;;;;;5081878;28;20031;-59
2022/04/24 11:29:14;;;;;;;5.95;2.90;;;;;;;;;;5085374;28;20047;-60
2022/04/24 11:31:47;;;;;;;3.90;2.80;;;;;;;;;;5063702;28;20025;-58
2022/04/24 11:34:13;;;;;;;4.53;2.47;;;;;;;;;;5084574;28;20048;-59
2022/04/24 11:36:39;;;;;;;6.30;2.45;;;;;;;;;;5081136;28;20055;-59
2022/04/24 11:39:09;;;;;;;3.53;2.25;;;;;;;;;;5067563;28;20031;-57
2022/04/24 11:41:35;;;;;;;5.32;2.97;;;;;;;;;;5090626;28;20544;-59
2022/04/24 11:44:02;;;;;;;5.25;2.63;;;;;;;;;;5083741;28;20081;-60
2022/04/24 11:51:59;;;;;;;5.18;2.53;;;;;;;;;;5081108;28;20083;-59
2022/04/24 11:54:25;;;;;;;4.53;2.63;;;;;;;;;;5070030;28;20032;-59
2022/04/24 11:56:52;;;;;;;4.75;2.78;;;;;;;;;;5069055;28;20056;-59
2022/04/24 11:59:20;;;;;;;4.80;2.17;;;;;;;;;;5065938;28;20358;-58
2022/04/24 12:01:47;;;;;;;4.20;2.67;;;;;;;;;;5080588;28;20032;-58
2022/04/24 12:04:16;;;;;;;3.65;2.10;;;;;;;;;;5087516;28;20467;-59
2022/04/24 12:06:42;;;;;;;3.65;2.15;;;;;;;;;;5075396;28;20056;-60
2022/04/24 12:09:10;;;;;;;3.20;2.22;;;;;;;;;;5075860;28;20123;-59
2022/04/24 12:11:36;;;;;;;3.03;1.92;;;;;;;;;;5050435;28;20029;-60
2022/04/24 12:14:03;;;;;;;3.03;2.15;;;;;;;;;;5085618;28;20048;-59
2022/04/24 12:16:30;;;;;;;5.85;2.20;;;;;;;;;;5084887;28;20048;-59
2022/04/24 12:18:57;;;;;;;4.93;2.45;;;;;;;;;;5067387;28;20024;-59
2022/04/24 12:21:23;;;;;;;4.22;2.40;;;;;;;;;;5071884;28;20035;-60
2022/04/24 12:23:53;;;;;;;8.10;3.13;;;;;;;;;;5080869;28;20024;-59
2022/04/24 12:26:20;;;;;;;4.38;2.20;;;;;;;;;;5087084;28;20027;-59
2022/04/24 12:28:47;;;;;;;5.18;2.47;;;;;;;;;;5063895;28;20390;-61
2022/04/24 12:31:43;;;;;;;3.92;1.83;;;;;;;;;;5071061;28;20071;-60
2022/04/24 12:34:09;;;;;;;3.22;1.67;;;;;;;;;;5046388;28;20044;-60
2022/04/24 12:36:35;;;;;;;2.35;1.38;;;;;;;;;;5071004;28;20017;-60
2022/04/24 12:39:04;;;;;;;3.25;1.40;;;;;;;;;;5062644;28;20055;-60
2022/04/24 12:41:30;;;;;;;2.08;1.10;;;;;;;;;;5059842;28;20174;-59
2022/04/24 12:44:00;;;;;;;2.72;1.42;;;;;;;;;;5059727;28;20035;-60
2022/04/24 12:46:26;;;;;;;2.50;1.52;;;;;;;;;;5061387;28;20484;-60
2022/04/24 12:48:53;;;;;;;2.72;1.40;;;;;;;;;;5073144;28;20035;-60
2022/04/24 12:51:21;;;;;;;3.20;1.80;;;;;;;;;;5065052;28;20109;-59
2022/04/24 12:53:48;;;;;;;2.65;1.50;;;;;;;;;;5061721;28;20042;-60
2022/04/24 12:56:14;;;;;;;1.92;1.50;;;;;;;;;;5063216;28;20562;-60
2022/04/24 12:58:40;;;;;;;2.85;1.30;;;;;;;;;;5077170;28;20032;-58
2022/04/24 13:01:08;;;;;;;3.80;1.50;;;;;;;;;;5063134;28;20082;-58
2022/04/24 13:03:34;;;;;;;2.47;1.40;;;;;;;;;;5075526;28;20081;-58
2022/04/24 13:06:01;;;;;;;9.25;1.63;;;;;;;;;;5060541;28;20025;-59
2022/04/24 13:08:27;;;;;;;3.58;1.20;;;;;;;;;;5065613;28;20434;-57
2022/04/24 13:10:53;;;;;;;1.50;1.10;;;;;;;;;;5064215;28;20104;-58
2022/04/24 13:13:19;;;;;;;1.65;1.05;;;;;;;;;;5072922;28;20178;-59
2022/04/24 13:18:06;;;;;;;2.60;1.40;;;;;;;;;;5082937;28;20036;-59
2022/04/24 13:18:31;;;;;;;2.88;1.77;;;;;;;;;;5063167;28;20480;-61
2022/04/24 13:20:57;;;;;;;3.00;1.35;;;;;;;;;;5070277;28;20059;-60
2022/04/24 13:23:23;;;;;;;2.80;1.15;;;;;;;;;;5065800;28;20024;-60
2022/04/24 13:25:50;;;;;;;3.05;1.33;;;;;;;;;;5060921;28;20086;-59
2022/04/24 13:28:16;;;;;;;3.75;1.42;;;;;;;;;;5070975;28;20028;-60
2022/04/24 13:30:46;;;;;;;1.08;0.85;;;;;;;;;;5063513;28;20445;-59
2022/04/24 13:33:14;;;;;;;3.60;1.00;;;;;;;;;;5064161;28;20035;-59
2022/04/24 13:35:40;;;;;;;6.43;1.10;;;;;;;;;;5070276;28;20024;-58
2022/04/24 13:38:18;;;;;;;2.13;0.90;;;;;;;;;;5058746;28;20077;-61
2022/04/24 13:40:51;;;;;;;1.30;0.88;;;;;;;;;;5056729;28;20396;-57
2022/04/24 13:43:17;;;;;;;;;;;;;;;;;;5056874;28;20055;-57
2022/04/24 13:45:43;;;;;;;1.83;1.30;;;;;;;;;;5074943;28;20394;-60
2022/04/24 13:48:11;;;;;;;2.65;1.27;;;;;;;;;;5082357;28;20031;-60
2022/04/24 13:50:38;;;;;;;1.95;1.30;;;;;;;;;;5074232;28;20040;-57
2022/04/24 13:53:04;;;;;;;3.72;1.08;;;;;;;;;;5057523;28;20036;-59
2022/04/24 13:55:30;;;;;;;4.10;1.15;;;;;;;;;;5050157;28;20747;-58
2022/04/24 13:57:56;;;;;;;2.05;1.23;;;;;;;;;;5074951;28;20032;-62
2022/04/24 14:00:23;;;;;;;2.83;1.30;;;;;;;;;;5061737;28;20523;-59
2022/04/24 14:02:49;;;;;;;2.10;1.10;;;;;;;;;;5078961;28;20031;-60
2022/04/24 14:05:15;;;;;;;1.77;1.27;;;;;;;;;;5073394;28;20047;-60
2022/04/24 14:07:41;;;;;;;1.85;1.00;;;;;;;;;;5083290;28;20031;-58
2022/04/24 14:10:08;;;;;;;1.95;1.10;;;;;;;;;;5053248;28;20029;-59
2022/04/24 14:12:34;;;;;;;2.38;1.15;;;;;;;;;;5060313;28;20024;-60
2022/04/24 14:15:00;;;;;;;2.33;1.08;;;;;;;;;;5074838;28;20024;-59
2022/04/24 14:17:26;;;;;;;2.28;1.20;;;;;;;;;;5064161;28;20050;-60
2022/04/24 14:19:53;;;;;;;3.03;0.88;;;;;;;;;;5054249;28;20121;-60
2022/04/24 14:22:19;;;;;;;2.85;1.58;;;;;;;;;;5076378;28;20036;-61
2022/04/24 14:24:45;;;;;;;2.47;1.40;;;;;;;;;;5075898;28;20021;-59
2022/04/24 14:27:13;;;;;;;2.35;1.48;;;;;;;;;;5078123;28;20039;-61
2022/04/24 14:29:39;;;;;;;3.05;1.35;;;;;;;;;;5056577;28;20024;-60
2022/04/24 14:32:06;;;;;;;3.10;1.45;;;;;;;;;;5074501;28;20028;-60
2022/04/24 14:34:32;;;;;;;3.85;1.45;;;;;;;;;;5059687;28;20036;-59
2022/04/24 14:36:58;;;;;;;4.07;1.50;;;;;;;;;;5066979;28;20017;-60
2022/04/24 14:39:24;;;;;;;1.98;1.40;;;;;;;;;;5054755;28;20499;-60
2022/04/24 14:41:52;;;;;;;5.55;2.10;;;;;;;;;;5067025;28;20029;-60
2022/04/24 14:44:18;;;;;;;5.18;1.88;;;;;;;;;;5064893;28;20089;-59
2022/04/24 14:57:43;;;;;;;3.05;1.48;;;;;;;;;;5065373;28;20044;-59